KSUX

Sioux Gateway

Airport
ICAO code
KSUX
Summary
ICAO Region
NAM
ICAO Territory
Location

Sioux City, Iowa,

Coordinates
42° 24' 6" N , 96° 23' 3" W
KCC
Airport CFIT
Altimeter Temperature Error Correction
Metar
KSUX 191152Z 00000KT 10SM CLR M01/M03 A3025 RMK AO2 SLP251 T10061028 10022 21028 53009

Description

Sioux Gateway Airport, also known as Colonel Bud Day Field, is a joint civil-military public airport located 10 km south of Sioux City and just west of Sergeant Bluff, in Woodbury County, Iowa, United States.

Climatology

Humid continental climate (Köppen climate classification Dfa) - characterized by four seasons: cold, windy, snowy winters, mild springs, hot, humid summers, and crisp and relatively short autumns. Precipitation reaches its lowest in January and February and peaks in summer and latter half of spring.

Runways

Designator Length Width Surface Rops
17/35 2012 46 ASP Yes/Yes
13/31 2744 46 CON Yes/Yes

Airport map

Aerial View

Airport accidents

SKYbrary Partners:

Safety knowledge contributed by: